Time;durP1;ratioP1;P1;durP2;ratioP2;P2;SDS_P1;SDS_P2;PMS_P1;PMS_P2;Temp;Humidity;BMP_temperature;BMP_pressure;BME280_temperature;BME280_humidity;BME280_pressure;Samples;Min_cycle;Max_cycle;Signal;HPM_P1;HPM_P2
2023/06/04 00:01:40;;;;;;;1.85;1.50;;;13.50;1.00;;;;;;5199315;28;20286;-67
2023/06/04 00:04:11;;;;;;;2.13;1.55;;;13.40;1.00;;;;;;5193438;28;20043;-68
2023/06/04 00:06:43;;;;;;;2.00;1.83;;;13.40;99.90;;;;;;5203849;28;20036;-67
2023/06/04 00:09:17;;;;;;;1.50;1.40;;;13.40;99.90;;;;;;5186522;28;20037;-67
2023/06/04 00:11:51;;;;;;;1.93;1.60;;;13.40;99.90;;;;;;5187501;28;20448;-67
2023/06/04 00:14:23;;;;;;;1.70;1.40;;;13.30;99.90;;;;;;5218864;28;20336;-67
2023/06/04 00:16:54;;;;;;;2.95;1.70;;;13.30;99.90;;;;;;5216596;28;20033;-67
2023/06/04 00:19:29;;;;;;;1.60;1.50;;;13.30;99.90;;;;;;5218838;28;20032;-67
2023/06/04 00:22:00;;;;;;;1.42;1.33;;;13.30;99.90;;;;;;5203439;28;20037;-67
2023/06/04 00:24:31;;;;;;;1.98;1.27;;;13.20;99.90;;;;;;5220047;28;20475;-68
2023/06/04 00:27:02;;;;;;;2.45;2.25;;;13.20;99.90;;;;;;5219099;28;20043;-67
2023/06/04 00:29:36;;;;;;;1.67;1.55;;;13.20;99.90;;;;;;5186595;28;20041;-69
2023/06/04 00:32:13;;;;;;;1.50;1.40;;;13.20;99.90;;;;;;5184313;28;20245;-67
2023/06/04 00:34:57;;;;;;;2.20;1.67;;;13.10;99.90;;;;;;5203165;28;20031;-67
2023/06/04 00:37:37;;;;;;;1.45;1.20;;;13.10;99.90;;;;;;5186222;28;20036;-67
2023/06/04 00:40:10;;;;;;;2.00;1.55;;;13.00;1.00;;;;;;5203083;28;20371;-68
2023/06/04 00:42:41;;;;;;;1.60;1.50;;;13.00;1.00;;;;;;5202264;28;20033;-67
2023/06/04 00:45:13;;;;;;;1.80;1.70;;;12.90;1.00;;;;;;5217029;28;20446;-68
2023/06/04 00:47:47;;;;;;;1.88;1.77;;;12.90;1.00;;;;;;5202901;28;20218;-67
2023/06/04 00:50:20;;;;;;;2.13;1.95;;;12.90;1.00;;;;;;5202394;28;20032;-68
2023/06/04 00:52:54;;;;;;;2.65;2.15;;;12.90;1.00;;;;;;5203058;28;20033;-68
2023/06/04 00:55:26;;;;;;;2.70;1.85;;;12.80;99.90;;;;;;5202198;28;20037;-67
2023/06/04 00:58:00;;;;;;;1.75;1.65;;;12.80;99.90;;;;;;5202351;28;20029;-67
2023/06/04 01:00:33;;;;;;;2.28;2.08;;;12.70;99.90;;;;;;5182915;28;20045;-67
2023/06/04 01:03:12;;;;;;;3.22;1.75;;;12.70;1.00;;;;;;5244467;22;20067;-86
2023/06/04 01:06:32;;;;;;;2.17;1.30;;;12.70;1.00;;;;;;5215842;28;20348;-85
2023/06/04 01:09:06;;;;;;;1.63;1.52;;;12.60;1.00;;;;;;5140941;28;20038;-85
2023/06/04 01:11:39;;;;;;;1.50;1.40;;;12.60;1.00;;;;;;5124674;28;20038;-86
2023/06/04 01:14:18;;;;;;;5.45;1.85;;;12.60;1.00;;;;;;5140459;28;20362;-86
2023/06/04 01:17:01;;;;;;;2.08;1.75;;;12.50;1.00;;;;;;5124646;28;20070;-85
2023/06/04 01:20:04;;;;;;;1.50;1.35;;;12.50;1.00;;;;;;5125207;28;20033;-86
2023/06/04 01:22:41;;;;;;;2.08;1.88;;;12.50;1.00;;;;;;5141277;28;20312;-87
2023/06/04 01:25:41;;;;;;;1.38;1.27;;;12.50;1.00;;;;;;5156751;28;20309;-86
2023/06/04 01:28:15;;;;;;;1.95;1.83;;;12.40;1.00;;;;;;5124186;28;20037;-87
2023/06/04 01:30:48;;;;;;;1.70;1.60;;;12.40;40.90;;;;;;5124271;28;20035;-86
2023/06/04 01:33:25;;;;;;;1.45;1.35;;;12.30;1.00;;;;;;5123479;28;20037;-86
2023/06/04 01:35:57;;;;;;;1.67;1.48;;;12.30;1.00;;;;;;5139747;28;20374;-86
2023/06/04 01:38:35;;;;;;;1.77;1.67;;;12.30;1.00;;;;;;5124286;28;20042;-86
2023/06/04 01:41:07;;;;;;;2.30;1.85;;;12.30;99.90;;;;;;5123912;28;20039;-87
2023/06/04 01:43:39;;;;;;;1.75;1.60;;;12.20;1.00;;;;;;5135088;28;20035;-87
2023/06/04 01:49:40;;;;;;;1.73;1.50;;;12.20;1.00;;;;;;5237376;28;20029;-86
2023/06/04 01:52:11;;;;;;;3.53;1.77;;;12.20;99.90;;;;;;5221402;28;20033;-86
2023/06/04 01:54:48;;;;;;;1.98;1.50;;;12.30;1.00;;;;;;5221372;28;20033;-85
2023/06/04 01:57:23;;;;;;;2.55;1.80;;;12.30;1.00;;;;;;5221589;28;20029;-85
2023/06/04 01:59:56;;;;;;;3.15;1.92;;;12.30;1.00;;;;;;5221493;28;20029;-86
2023/06/04 02:02:48;;;;;;;1.75;1.48;;;12.30;1.00;;;;;;5239993;28;20031;-85
2023/06/04 02:05:19;;;;;;;1.60;1.50;;;12.30;1.00;;;;;;5215363;28;20040;-87
2023/06/04 02:07:51;;;;;;;5.53;1.75;;;12.30;1.00;;;;;;5221349;28;20032;-86
2023/06/04 02:10:22;;;;;;;2.10;1.73;;;12.30;1.00;;;;;;5221223;28;20029;-85
2023/06/04 02:13:00;;;;;;;3.28;1.58;;;12.30;1.00;;;;;;5221895;28;20187;-86
2023/06/04 02:18:59;;;;;;;1.55;1.45;;;12.30;1.00;;;;;;5237338;28;20041;-86
2023/06/04 02:21:30;;;;;;;1.67;1.35;;;12.40;1.00;;;;;;5221336;28;20029;-85
2023/06/04 02:24:01;;;;;;;1.42;1.33;;;12.40;1.00;;;;;;5221079;28;20028;-85
2023/06/04 02:26:33;;;;;;;1.50;1.23;;;12.50;1.00;;;;;;5220814;28;20051;-86
2023/06/04 02:29:05;;;;;;;1.73;1.55;;;12.60;1.00;;;;;;5220897;28;20222;-85
2023/06/04 02:31:39;;;;;;;2.15;1.33;;;12.70;1.00;;;;;;5237544;28;20036;-86
2023/06/04 02:34:12;;;;;;;2.47;1.80;;;12.80;1.00;;;;;;5220036;28;20029;-86
2023/06/04 02:36:48;;;;;;;2.08;1.70;;;12.90;99.90;;;;;;5237362;28;20037;-86
2023/06/04 02:39:20;;;;;;;1.48;1.33;;;12.90;99.90;;;;;;5220366;28;20032;-89
2023/06/04 02:41:55;;;;;;;1.70;1.48;;;13.00;99.90;;;;;;5220870;28;20051;-85
2023/06/04 02:44:29;;;;;;;1.40;1.30;;;13.10;73.20;;;;;;5221334;28;20035;-87
2023/06/04 02:47:00;;;;;;;1.88;1.77;;;13.10;1.00;;;;;;5224965;28;20033;-86
2023/06/04 02:49:32;;;;;;;2.88;1.60;;;13.20;1.00;;;;;;5225079;28;20035;-86
2023/06/04 02:52:04;;;;;;;4.18;1.80;;;13.20;1.00;;;;;;5224974;28;20033;-85
2023/06/04 02:54:35;;;;;;;2.45;1.63;;;13.30;1.00;;;;;;5224515;28;20033;-88
2023/06/04 02:57:08;;;;;;;2.17;1.48;;;13.30;1.00;;;;;;5224354;28;20358;-85
2023/06/04 02:59:43;;;;;;;1.65;1.48;;;13.30;1.00;;;;;;5224823;28;20033;-84
2023/06/04 03:02:15;;;;;;;5.03;2.05;;;13.50;1.00;;;;;;5224733;28;20036;-86
2023/06/04 03:04:50;;;;;;;2.40;1.40;;;13.50;1.00;;;;;;5218869;28;20044;-85
2023/06/04 03:07:22;;;;;;;1.63;1.52;;;13.60;1.00;;;;;;5224430;28;20036;-85
2023/06/04 03:09:54;;;;;;;1.77;1.67;;;13.60;1.00;;;;;;5224638;28;20134;-86
2023/06/04 03:12:25;;;;;;;2.30;2.10;;;13.60;1.00;;;;;;5240622;28;20033;-87
2023/06/04 03:14:57;;;;;;;1.92;1.77;;;13.60;1.00;;;;;;5225966;28;20049;-86
2023/06/04 03:17:35;;;;;;;1.17;1.10;;;13.60;1.00;;;;;;5225063;28;20033;-87
2023/06/04 03:20:13;;;;;;;2.08;1.75;;;13.50;1.00;;;;;;5246757;28;20028;-86
2023/06/04 03:22:47;;;;;;;3.83;2.38;;;13.50;1.00;;;;;;5229911;28;20035;-87
2023/06/04 03:28:55;;;;;;;2.55;1.88;;;13.60;1.00;;;;;;5248824;28;20025;-86
2023/06/04 03:31:27;;;;;;;2.63;1.92;;;13.70;1.00;;;;;;5225208;28;20223;-86
2023/06/04 03:34:01;;;;;;;2.85;1.73;;;13.70;1.00;;;;;;5225366;28;20025;-85
2023/06/04 03:36:37;;;;;;;;;;;13.70;99.90;;;;;;5241485;28;20039;-86
2023/06/04 03:39:11;;;;;;;1.45;1.35;;;13.80;99.90;;;;;;5224464;28;19911;-86
2023/06/04 03:41:47;;;;;;;2.70;1.60;;;13.80;1.00;;;;;;5224337;28;20039;-86
2023/06/04 03:44:20;;;;;;;2.30;1.63;;;13.90;99.90;;;;;;5224889;28;20028;-86
2023/06/04 03:46:56;;;;;;;2.28;1.85;;;13.90;99.90;;;;;;5224542;28;20039;-85
2023/06/04 03:49:32;;;;;;;2.30;1.55;;;13.90;99.90;;;;;;5224669;28;20035;-85
2023/06/04 03:52:04;;;;;;;1.10;1.00;;;14.00;99.90;;;;;;5224029;28;20035;-86
2023/06/04 03:54:35;;;;;;;1.50;1.40;;;14.10;99.90;;;;;;5223965;28;20222;-87
2023/06/04 03:57:10;;;;;;;1.95;1.85;;;14.10;99.90;;;;;;5222662;28;20039;-86
2023/06/04 03:59:45;;;;;;;1.85;1.65;;;14.10;99.90;;;;;;5227844;28;20296;-86
2023/06/04 04:02:18;;;;;;;;;;;14.10;99.90;;;;;;5224275;28;20037;-86
2023/06/04 04:04:50;;;;;;;1.58;1.48;;;14.10;99.90;;;;;;5217241;28;19908;-85
2023/06/04 04:07:22;;;;;;;1.60;1.50;;;14.10;99.90;;;;;;5223426;28;20039;-86
2023/06/04 04:09:57;;;;;;;1.50;1.30;;;14.00;99.90;;;;;;5227740;28;20110;-86
2023/06/04 04:12:31;;;;;;;4.13;2.13;;;13.90;99.90;;;;;;5227088;28;20195;-87
2023/06/04 04:15:16;;;;;;;3.63;1.55;;;13.90;99.90;;;;;;5225231;28;20135;-86
2023/06/04 04:17:50;;;;;;;2.20;1.85;;;13.90;99.90;;;;;;5223734;28;20033;-86
2023/06/04 04:20:21;;;;;;;1.65;1.38;;;14.00;99.90;;;;;;5223070;28;20051;-86
2023/06/04 04:22:52;;;;;;;1.77;1.42;;;14.00;99.90;;;;;;5223527;28;20028;-86
2023/06/04 04:25:27;;;;;;;2.22;1.50;;;14.10;99.90;;;;;;5223670;28;20031;-87
2023/06/04 04:28:02;;;;;;;3.13;1.75;;;14.10;99.90;;;;;;5223482;28;20041;-88
2023/06/04 04:30:36;;;;;;;2.10;1.30;;;14.20;99.90;;;;;;5224289;28;20032;-86
2023/06/04 04:33:15;;;;;;;4.13;1.85;;;14.20;99.90;;;;;;5223630;28;20193;-86
2023/06/04 04:39:14;;;;;;;2.67;1.63;;;14.20;99.90;;;;;;5239372;28;20039;-85
2023/06/04 04:41:45;;;;;;;2.58;1.50;;;14.30;99.90;;;;;;5223861;28;20025;-85
2023/06/04 04:44:17;;;;;;;2.50;1.67;;;14.40;99.90;;;;;;5223512;28;20031;-86
2023/06/04 04:46:51;;;;;;;2.10;1.65;;;14.50;99.90;;;;;;5223974;28;20028;-86
2023/06/04 04:49:22;;;;;;;3.08;1.77;;;14.60;99.90;;;;;;5222739;28;20031;-85
2023/06/04 04:51:59;;;;;;;2.55;1.88;;;14.60;99.90;;;;;;5223102;28;20031;-85
2023/06/04 04:54:32;;;;;;;2.58;1.52;;;14.60;99.90;;;;;;5222927;28;20218;-86
2023/06/04 04:57:04;;;;;;;2.08;1.75;;;14.60;99.90;;;;;;5223649;28;20033;-85
2023/06/04 04:59:40;;;;;;;1.88;1.52;;;14.70;99.90;;;;;;5222697;28;20028;-87
2023/06/04 05:02:14;;;;;;;1.70;1.60;;;14.80;88.50;;;;;;5222676;28;20218;-86
2023/06/04 05:04:48;;;;;;;1.55;1.45;;;15.10;10.30;;;;;;5217044;28;20040;-86
2023/06/04 05:07:24;;;;;;;1.60;1.38;;;15.20;1.00;;;;;;5221973;28;20029;-86
2023/06/04 05:09:56;;;;;;;1.63;1.52;;;15.40;1.00;;;;;;5221384;28;20033;-86
2023/06/04 05:12:31;;;;;;;1.88;1.73;;;15.50;1.00;;;;;;5222121;28;20035;-86
2023/06/04 05:15:05;;;;;;;1.77;1.40;;;15.60;1.00;;;;;;5221925;28;20039;-87
2023/06/04 05:17:40;;;;;;;3.05;2.05;;;15.70;1.00;;;;;;5222398;28;20039;-88
2023/06/04 05:20:22;;;;;;;2.13;1.95;;;15.60;1.00;;;;;;5222317;28;20020;-85
2023/06/04 05:22:55;;;;;;;2.67;2.05;;;15.60;1.00;;;;;;5222212;28;20196;-86
2023/06/04 05:28:54;;;;;;;2.78;1.77;;;15.70;1.00;;;;;;5237688;28;20035;-85
2023/06/04 05:31:27;;;;;;;2.25;1.80;;;15.70;1.00;;;;;;5221958;28;20186;-86
2023/06/04 05:34:01;;;;;;;2.28;2.08;;;15.70;1.00;;;;;;5221494;28;20033;-85
2023/06/04 05:36:33;;;;;;;;;;;15.70;1.00;;;;;;5222241;28;20025;-84
2023/06/04 05:39:09;;;;;;;3.47;2.00;;;15.70;1.00;;;;;;5221394;28;19904;-85
2023/06/04 05:41:43;;;;;;;2.08;1.88;;;15.70;1.00;;;;;;5221796;28;20234;-85
2023/06/04 05:44:17;;;;;;;1.70;1.60;;;15.60;1.00;;;;;;5221395;28;20024;-86
2023/06/04 05:46:48;;;;;;;2.00;1.80;;;15.60;1.00;;;;;;5221686;28;20028;-86
2023/06/04 05:49:24;;;;;;;2.30;1.92;;;15.90;1.00;;;;;;5221403;28;20033;-85
2023/06/04 05:52:01;;;;;;;3.40;1.95;;;16.00;1.00;;;;;;5221553;28;20028;-85
2023/06/04 05:54:36;;;;;;;2.28;2.03;;;16.20;1.00;;;;;;5221210;28;20349;-86
2023/06/04 05:57:14;;;;;;;3.45;2.20;;;16.00;1.00;;;;;;5221134;28;20037;-86
2023/06/04 05:59:46;;;;;;;4.75;2.10;;;16.10;1.00;;;;;;5221410;28;20337;-86
2023/06/04 06:02:17;;;;;;;1.90;1.65;;;16.30;1.00;;;;;;5221417;28;20047;-86
2023/06/04 06:04:51;;;;;;;5.22;2.00;;;16.70;1.00;;;;;;5215652;28;20347;-86
2023/06/04 06:07:23;;;;;;;2.55;2.28;;;16.90;1.00;;;;;;5220955;28;20340;-86
2023/06/04 06:09:56;;;;;;;3.03;1.98;;;17.30;1.00;;;;;;5221210;28;20051;-86
2023/06/04 06:12:33;;;;;;;3.00;2.53;;;17.60;1.00;;;;;;5220561;28;20033;-85
2023/06/04 06:15:05;;;;;;;3.75;3.00;;;17.90;99.90;;;;;;5221967;28;20032;-86
2023/06/04 06:17:38;;;;;;;2.55;2.20;;;17.90;99.90;;;;;;5221256;28;20029;-86
2023/06/04 06:20:17;;;;;;;2.47;2.28;;;17.70;99.90;;;;;;5223778;28;20047;-85
2023/06/04 06:22:52;;;;;;;3.10;2.40;;;17.50;99.90;;;;;;5241667;28;20029;-85
2023/06/04 06:25:26;;;;;;;3.35;2.55;;;17.30;99.90;;;;;;5225497;28;20030;-85
2023/06/04 06:27:58;;;;;;;3.45;2.55;;;17.30;99.90;;;;;;5224922;28;20043;-85
2023/06/04 06:30:30;;;;;;;3.47;2.63;;;17.10;99.90;;;;;;5224774;28;20039;-86
2023/06/04 06:33:04;;;;;;;2.80;2.22;;;17.00;99.90;;;;;;5225288;28;20039;-85
2023/06/04 06:35:36;;;;;;;3.03;2.40;;;17.10;1.00;;;;;;5224857;28;20037;-85
2023/06/04 06:38:07;;;;;;;2.90;2.10;;;17.30;99.90;;;;;;5224597;28;20029;-86
2023/06/04 06:40:41;;;;;;;3.40;2.25;;;17.30;99.90;;;;;;5224324;28;20032;-86
2023/06/04 06:43:12;;;;;;;3.28;2.20;;;17.40;99.90;;;;;;5225047;28;20031;-85
2023/06/04 06:49:16;;;;;;;3.70;2.35;;;17.60;99.90;;;;;;5240793;28;20028;-85
2023/06/04 06:51:47;;;;;;;2.08;1.88;;;17.60;99.90;;;;;;5224925;28;20029;-85
2023/06/04 06:54:21;;;;;;;2.72;2.00;;;17.50;99.90;;;;;;5225542;28;20064;-84
2023/06/04 06:57:08;;;;;;;2.33;2.00;;;17.60;99.90;;;;;;5241067;28;20059;-86
2023/06/04 06:59:44;;;;;;;4.40;2.38;;;17.70;99.90;;;;;;5224407;28;20046;-86
2023/06/04 07:02:17;;;;;;;3.03;1.92;;;17.70;99.90;;;;;;5224553;28;20250;-86
2023/06/04 07:04:49;;;;;;;7.35;2.50;;;17.90;99.90;;;;;;5219829;28;20047;-86
2023/06/04 07:07:29;;;;;;;2.20;2.00;;;18.20;99.90;;;;;;5225243;28;20042;-88
2023/06/04 07:10:09;;;;;;;2.22;2.00;;;18.40;99.90;;;;;;5224394;28;20035;-85
2023/06/04 07:13:00;;;;;;;2.42;2.10;;;18.60;99.90;;;;;;5224710;28;20219;-86
2023/06/04 07:15:33;;;;;;;2.85;2.10;;;18.80;99.90;;;;;;5224419;28;20214;-86
2023/06/04 07:18:04;;;;;;;5.07;2.28;;;19.20;1.00;;;;;;5225327;28;20311;-86
2023/06/04 07:20:38;;;;;;;2.58;1.90;;;19.50;1.00;;;;;;5224411;28;20043;-86
2023/06/04 07:23:12;;;;;;;3.08;2.28;;;19.80;1.00;;;;;;5224273;28;20028;-87
2023/06/04 07:25:44;;;;;;;3.13;2.20;;;19.90;1.00;;;;;;5224666;28;20028;-85
2023/06/04 07:28:17;;;;;;;2.17;1.92;;;19.70;1.00;;;;;;5223858;28;20028;-86
2023/06/04 07:30:50;;;;;;;2.03;1.75;;;19.50;1.00;;;;;;5224705;28;20024;-86
2023/06/04 07:33:24;;;;;;;3.75;1.90;;;19.40;1.00;;;;;;5227307;28;20029;-86
2023/06/04 07:35:56;;;;;;;5.43;2.13;;;19.50;99.90;;;;;;5228038;28;20047;-86
2023/06/04 07:38:32;;;;;;;3.17;2.03;;;19.60;99.90;;;;;;5227906;28;20036;-87
2023/06/04 07:41:13;;;;;;;2.22;2.00;;;19.80;99.90;;;;;;5241083;28;20345;-87
2023/06/04 07:43:50;;;;;;;2.97;2.20;;;19.90;99.90;;;;;;5224113;28;20043;-86
2023/06/04 07:46:21;;;;;;;2.70;2.30;;;20.30;99.90;;;;;;5224251;28;20085;-86
2023/06/04 07:49:01;;;;;;;2.50;2.00;;;20.50;99.90;;;;;;5224432;28;20039;-86
2023/06/04 07:52:11;;;;;;;2.35;1.75;;;20.70;99.90;;;;;;5242830;28;20031;-85
2023/06/04 07:54:46;;;;;;;5.47;2.55;;;20.50;99.90;;;;;;5224336;28;20035;-85
2023/06/04 07:57:18;;;;;;;2.30;2.10;;;20.90;99.90;;;;;;5224289;28;20037;-86
2023/06/04 07:59:56;;;;;;;3.00;2.22;;;21.20;99.90;;;;;;5227734;28;20029;-85
2023/06/04 08:02:31;;;;;;;3.67;2.05;;;21.50;99.90;;;;;;5247544;28;20043;-86
2023/06/04 08:05:24;;;;;;;2.75;2.20;;;21.30;1.00;;;;;;5210538;28;20052;-87
2023/06/04 08:07:57;;;;;;;3.80;2.17;;;21.10;1.00;;;;;;5217856;28;20039;-86
2023/06/04 08:10:31;;;;;;;3.35;2.40;;;21.00;1.00;;;;;;5225050;28;20047;-87
2023/06/04 08:13:04;;;;;;;3.75;1.88;;;20.80;1.00;;;;;;5223732;28;20029;-85
2023/06/04 08:15:58;;;;;;;2.65;1.95;;;20.50;1.00;;;;;;5223888;28;20047;-88
2023/06/04 08:18:39;;;;;;;2.75;1.90;;;20.60;1.00;;;;;;5222536;28;20025;-88
2023/06/04 08:21:16;;;;;;;2.80;2.30;;;20.90;56.10;;;;;;5239447;28;20210;-85
2023/06/04 08:23:49;;;;;;;2.55;2.03;;;20.80;1.00;;;;;;5224565;28;20029;-86
2023/06/04 08:26:24;;;;;;;2.75;2.33;;;20.60;1.00;;;;;;5224683;28;20024;-86
2023/06/04 08:32:01;;;;;;;2.50;2.00;;;21.10;1.00;;;;;;5238028;28;20045;-67
2023/06/04 08:34:35;;;;;;;2.35;1.67;;;21.60;1.00;;;;;;5207045;28;20413;-67
2023/06/04 08:37:06;;;;;;;3.65;1.90;;;21.80;1.00;;;;;;5239403;28;20041;-68
2023/06/04 08:39:42;;;;;;;2.58;2.03;;;22.30;1.00;;;;;;5222639;28;20348;-67
2023/06/04 08:42:31;;;;;;;2.40;1.83;;;22.70;1.00;;;;;;5201596;28;20040;-68
2023/06/04 08:45:06;;;;;;;2.17;1.85;;;23.40;1.00;;;;;;5198548;28;20051;-69
2023/06/04 08:47:45;;;;;;;3.38;2.38;;;23.70;1.00;;;;;;5227112;28;20596;-70
2023/06/04 08:50:26;;;;;;;5.10;2.53;;;23.40;1.00;;;;;;5234588;28;20345;-67
2023/06/04 08:52:57;;;;;;;2.78;2.25;;;23.50;1.00;;;;;;5240051;28;20337;-67
2023/06/04 08:55:30;;;;;;;2.90;2.28;;;23.20;1.00;;;;;;5219099;28;20024;-67
2023/06/04 08:58:05;;;;;;;3.10;2.17;;;22.50;1.00;;;;;;5239425;28;20009;-67
2023/06/04 09:00:37;;;;;;;3.65;2.35;;;22.70;1.00;;;;;;5236750;28;20245;-68
2023/06/04 09:03:11;;;;;;;2.80;1.70;;;23.20;1.00;;;;;;5216177;28;20032;-68
2023/06/04 09:05:48;;;;;;;3.35;2.00;;;23.60;1.00;;;;;;5192230;28;20055;-68
2023/06/04 09:08:23;;;;;;;3.40;2.03;;;23.40;1.00;;;;;;5186666;28;20223;-69
2023/06/04 09:11:01;;;;;;;2.33;2.05;;;23.40;1.00;;;;;;5202754;28;20029;-67
2023/06/04 09:13:37;;;;;;;2.45;1.80;;;23.70;1.00;;;;;;5213045;28;20352;-68
2023/06/04 09:16:10;;;;;;;3.28;2.25;;;24.50;1.00;;;;;;5222223;28;20046;-68
2023/06/04 09:18:44;;;;;;;3.03;1.60;;;25.30;1.00;;;;;;5224657;28;20036;-69
2023/06/04 09:21:19;;;;;;;2.17;1.50;;;25.10;1.00;;;;;;5204936;28;20367;-68
2023/06/04 09:23:51;;;;;;;2.65;1.63;;;25.50;1.00;;;;;;5238375;28;20028;-68
2023/06/04 09:26:24;;;;;;;2.33;2.10;;;26.10;1.00;;;;;;5240531;28;20096;-69
2023/06/04 09:28:57;;;;;;;5.10;1.58;;;26.50;1.00;;;;;;5239363;28;20048;-69
2023/06/04 09:31:35;;;;;;;5.40;1.70;;;26.60;1.00;;;;;;5178297;28;20052;-68
2023/06/04 09:34:11;;;;;;;2.53;1.83;;;26.70;1.00;;;;;;5182935;28;20363;-68
2023/06/04 09:36:43;;;;;;;2.65;1.77;;;26.30;1.00;;;;;;5186740;28;20059;-68
2023/06/04 09:39:16;;;;;;;2.97;2.15;;;25.70;1.00;;;;;;5203745;28;20057;-68
2023/06/04 09:41:59;;;;;;;3.95;2.55;;;25.80;1.00;;;;;;5197622;28;20039;-68
2023/06/04 09:44:46;;;;;;;3.15;2.22;;;26.00;1.00;;;;;;5180436;28;20538;-68
2023/06/04 09:47:18;;;;;;;2.30;1.88;;;26.10;1.00;;;;;;5183733;28;20043;-68
2023/06/04 09:49:52;;;;;;;2.60;1.85;;;26.40;1.00;;;;;;5178162;28;20028;-66
2023/06/04 09:52:36;;;;;;;2.58;1.92;;;25.30;1.00;;;;;;5187147;28;20230;-67
2023/06/04 09:55:22;;;;;;;2.10;1.80;;;24.20;1.00;;;;;;5217175;28;20513;-67
2023/06/04 09:57:54;;;;;;;2.83;2.05;;;23.50;1.00;;;;;;5213258;28;20039;-67
2023/06/04 10:00:28;;;;;;;2.60;2.20;;;23.50;1.00;;;;;;5197287;28;20322;-67
2023/06/04 10:03:03;;;;;;;4.30;1.80;;;23.50;1.00;;;;;;5200352;28;20263;-68
2023/06/04 10:05:35;;;;;;;2.47;1.58;;;24.00;1.00;;;;;;5175665;28;20233;-68
2023/06/04 10:08:12;;;;;;;2.28;1.85;;;24.20;1.00;;;;;;5201931;28;20363;-67
2023/06/04 10:10:46;;;;;;;2.20;1.63;;;24.20;1.00;;;;;;5218273;28;20066;-68
2023/06/04 10:13:19;;;;;;;3.40;1.95;;;24.20;1.00;;;;;;5218630;28;20031;-68
2023/06/04 10:15:50;;;;;;;2.28;1.83;;;24.40;1.00;;;;;;5200355;28;20024;-68
2023/06/04 10:18:26;;;;;;;2.05;1.60;;;24.90;1.00;;;;;;5213414;28;20071;-68
2023/06/04 10:21:07;;;;;;;2.03;1.58;;;25.30;1.00;;;;;;5210591;28;20033;-67
2023/06/04 10:23:40;;;;;;;1.60;1.35;;;25.50;1.00;;;;;;5215923;28;20032;-67
2023/06/04 10:26:18;;;;;;;3.60;1.85;;;25.10;1.00;;;;;;5209672;28;20032;-67
2023/06/04 10:28:53;;;;;;;1.65;1.17;;;25.30;1.00;;;;;;5203785;28;20031;-68
2023/06/04 10:31:29;;;;;;;1.92;1.35;;;26.10;1.00;;;;;;5197249;28;20040;-67
2023/06/04 10:34:03;;;;;;;1.25;1.13;;;27.40;1.00;;;;;;5204013;28;20036;-69
2023/06/04 10:36:47;;;;;;;2.70;1.25;;;27.30;99.90;;;;;;5211035;28;20047;-69
2023/06/04 10:39:32;;;;;;;2.15;1.95;;;28.30;99.90;;;;;;5239406;28;20310;-68
2023/06/04 10:42:07;;;;;;;1.33;1.13;;;28.10;99.90;;;;;;5237817;28;20313;-68
2023/06/04 10:44:48;;;;;;;1.48;1.13;;;27.50;99.90;;;;;;5217941;28;20029;-69
2023/06/04 10:47:26;;;;;;;1.15;1.08;;;27.40;99.90;;;;;;5196169;28;20037;-68
2023/06/04 10:50:11;;;;;;;1.35;1.20;;;27.60;1.00;;;;;;5217568;28;20031;-68
2023/06/04 10:52:57;;;;;;;2.75;1.48;;;27.30;99.90;;;;;;5218103;28;20029;-69
2023/06/04 10:55:30;;;;;;;1.27;1.17;;;27.00;99.90;;;;;;5216801;28;20041;-68
2023/06/04 10:58:04;;;;;;;2.38;1.05;;;27.20;99.90;;;;;;5228313;28;20262;-68
2023/06/04 11:00:42;;;;;;;3.67;1.95;;;27.70;1.00;;;;;;5200610;28;20052;-69
2023/06/04 11:03:14;;;;;;;2.60;1.13;;;28.40;1.00;;;;;;5233651;28;20322;-67
2023/06/04 11:05:50;;;;;;;1.52;1.20;;;27.60;99.90;;;;;;5202313;28;20244;-67
2023/06/04 11:08:29;;;;;;;2.53;2.03;;;26.70;99.90;;;;;;5206652;28;20260;-68
2023/06/04 11:11:12;;;;;;;1.88;0.95;;;26.70;99.90;;;;;;5223539;28;20249;-68
2023/06/04 11:13:43;;;;;;;1.83;1.23;;;26.90;99.90;;;;;;5207362;28;20044;-67
2023/06/04 11:16:17;;;;;;;1.13;1.02;;;26.90;99.90;;;;;;5220744;28;20050;-68
2023/06/04 11:18:58;;;;;;;1.98;1.23;;;26.60;99.90;;;;;;5207451;28;20045;-68
2023/06/04 11:21:37;;;;;;;2.10;1.42;;;26.60;1.00;;;;;;5223372;28;20462;-68
2023/06/04 11:24:09;;;;;;;1.52;1.40;;;27.00;1.00;;;;;;5242410;28;20127;-68
2023/06/04 11:26:41;;;;;;;1.52;1.08;;;27.30;99.90;;;;;;5241213;28;20316;-68
2023/06/04 11:29:18;;;;;;;3.35;1.10;;;27.30;99.90;;;;;;5223728;28;20321;-69
2023/06/04 11:31:49;;;;;;;2.30;1.20;;;27.70;99.90;;;;;;5220771;28;20036;-68
2023/06/04 11:34:33;;;;;;;1.70;1.30;;;27.60;99.90;;;;;;5240972;28;20216;-67
2023/06/04 11:37:09;;;;;;;2.90;1.02;;;27.20;99.90;;;;;;5208335;28;20040;-67
2023/06/04 11:39:42;;;;;;;2.92;1.70;;;27.70;99.90;;;;;;5223558;28;20424;-67
2023/06/04 11:42:14;;;;;;;2.70;1.50;;;27.00;99.90;;;;;;5239934;28;20025;-69
2023/06/04 11:44:50;;;;;;;2.15;1.25;;;26.30;99.90;;;;;;5208501;28;20040;-67
2023/06/04 11:47:28;;;;;;;1.42;1.20;;;26.20;99.90;;;;;;5220887;28;20047;-68
2023/06/04 11:49:59;;;;;;;1.13;1.00;;;26.00;99.90;;;;;;5224328;28;20050;-68
2023/06/04 11:52:40;;;;;;;1.13;1.00;;;25.80;99.90;;;;;;5224013;28;20042;-68
2023/06/04 11:55:12;;;;;;;1.85;1.20;;;25.80;99.90;;;;;;5242531;28;20472;-68
2023/06/04 11:57:49;;;;;;;1.90;1.27;;;25.40;99.90;;;;;;5219462;28;20032;-67
2023/06/04 12:00:23;;;;;;;1.73;1.20;;;25.00;99.90;;;;;;5205563;28;20052;-67
2023/06/04 12:02:55;;;;;;;;;;;25.20;99.90;;;;;;5241797;28;20355;-67
2023/06/04 12:05:31;;;;;;;4.25;1.42;;;25.70;99.90;;;;;;5214105;28;19908;-68
2023/06/04 12:08:10;;;;;;;1.17;1.02;;;26.70;99.90;;;;;;5241366;28;20191;-68
2023/06/04 12:10:46;;;;;;;1.23;1.00;;;27.40;99.90;;;;;;5224495;28;20344;-67
2023/06/04 12:13:17;;;;;;;1.48;1.05;;;27.30;99.90;;;;;;5221467;28;20244;-67
2023/06/04 12:16:00;;;;;;;1.20;1.00;;;27.10;99.90;;;;;;5185738;28;20536;-67
2023/06/04 12:18:32;;;;;;;3.90;1.13;;;26.90;99.90;;;;;;5220188;28;20021;-67
2023/06/04 12:21:04;;;;;;;1.15;1.02;;;26.70;99.90;;;;;;5206157;28;20345;-67
2023/06/04 12:23:35;;;;;;;2.05;1.23;;;26.70;99.90;;;;;;5204005;28;20025;-69
2023/06/04 12:26:07;;;;;;;9.20;1.67;;;26.30;99.90;;;;;;5240264;28;20038;-69
2023/06/04 12:28:38;;;;;;;3.72;1.17;;;26.00;99.90;;;;;;5207373;28;20036;-67
2023/06/04 12:31:18;;;;;;;3.67;1.17;;;26.00;99.90;;;;;;5221544;28;20033;-67
2023/06/04 12:33:50;;;;;;;1.90;0.93;;;26.10;99.90;;;;;;5207576;28;20031;-68
2023/06/04 12:36:21;;;;;;;1.33;1.08;;;26.30;99.90;;;;;;5223978;28;20515;-68
2023/06/04 12:39:00;;;;;;;1.35;1.13;;;26.40;99.90;;;;;;5221887;28;20044;-68
2023/06/04 12:41:34;;;;;;;1.15;1.05;;;26.40;99.90;;;;;;5234003;28;20028;-68
2023/06/04 12:44:05;;;;;;;1.55;1.35;;;25.60;99.90;;;;;;5223847;28;20032;-67
2023/06/04 12:46:38;;;;;;;1.83;1.27;;;25.00;99.90;;;;;;5239901;28;20668;-68
2023/06/04 12:49:10;;;;;;;1.77;1.25;;;24.70;99.90;;;;;;5207225;28;20039;-67
2023/06/04 12:51:44;;;;;;;1.13;1.02;;;24.70;99.90;;;;;;5241510;28;20039;-68
2023/06/04 12:54:17;;;;;;;1.20;1.10;;;24.30;99.90;;;;;;5206643;28;20036;-66
2023/06/04 12:56:51;;;;;;;2.53;1.60;;;24.30;99.90;;;;;;5205521;28;20036;-65
2023/06/04 12:59:23;;;;;;;1.52;1.30;;;24.00;99.90;;;;;;5222652;28;20032;-66
2023/06/04 13:01:57;;;;;;;4.95;1.60;;;23.80;99.90;;;;;;5204282;28;20020;-66
2023/06/04 13:04:28;;;;;;;1.45;1.35;;;23.40;99.90;;;;;;5196205;28;20068;-66
2023/06/04 13:07:00;;;;;;;2.00;1.27;;;23.40;99.90;;;;;;5223995;28;20028;-66
2023/06/04 13:09:34;;;;;;;2.05;1.27;;;23.40;99.90;;;;;;5240919;28;20051;-67
2023/06/04 13:12:09;;;;;;;4.10;1.05;;;23.40;99.90;;;;;;5239490;28;20036;-67
2023/06/04 13:14:41;;;;;;;1.33;1.20;;;23.40;99.90;;;;;;5240509;28;20041;-67
2023/06/04 13:17:17;;;;;;;2.70;1.45;;;24.20;99.90;;;;;;5221800;28;20036;-68
2023/06/04 13:19:52;;;;;;;2.15;1.40;;;24.80;99.90;;;;;;5209429;28;20044;-68
2023/06/04 13:22:26;;;;;;;1.73;1.13;;;24.90;99.90;;;;;;5225226;28;20027;-67
2023/06/04 13:25:03;;;;;;;1.77;1.63;;;24.90;99.90;;;;;;5227373;28;20351;-67
2023/06/04 13:27:36;;;;;;;3.80;1.73;;;24.80;99.90;;;;;;5239327;28;20039;-67
2023/06/04 13:30:13;;;;;;;2.47;1.85;;;24.20;99.90;;;;;;5203634;28;20543;-68
2023/06/04 13:32:45;;;;;;;1.45;1.33;;;23.70;99.90;;;;;;5205910;28;20040;-66
2023/06/04 13:35:16;;;;;;;3.05;1.60;;;23.50;99.90;;;;;;5188931;28;20029;-65
2023/06/04 13:37:47;;;;;;;1.65;1.40;;;23.30;99.90;;;;;;5213538;28;20487;-64
2023/06/04 13:40:19;;;;;;;2.95;1.65;;;23.10;99.90;;;;;;5201777;28;20358;-66
2023/06/04 13:42:52;;;;;;;2.78;1.58;;;23.00;99.90;;;;;;5202132;28;20313;-66
2023/06/04 13:45:26;;;;;;;2.13;1.58;;;23.10;99.90;;;;;;5199710;28;20513;-67
2023/06/04 13:48:04;;;;;;;2.33;1.73;;;23.30;99.90;;;;;;5218522;28;20039;-67
2023/06/04 13:50:35;;;;;;;1.92;1.35;;;23.20;99.90;;;;;;5202302;28;20045;-66
2023/06/04 13:53:08;;;;;;;2.38;1.52;;;23.30;99.90;;;;;;5219936;28;20035;-66
2023/06/04 13:55:40;;;;;;;1.10;1.00;;;23.30;99.90;;;;;;5219487;28;20405;-67
2023/06/04 13:58:16;;;;;;;1.83;1.50;;;23.40;99.90;;;;;;5229278;28;20039;-68